地図

経路データ

SID SEASON NUMBER BASIN SUBBASIN NAME ISO_TIME NATURE LAT LON WMO_WIND WMO_PRES WMO_AGENCY TRACK_TYPE DIST2LAND LANDFALL IFLAG USA_AGENCY USA_ATCF_ID USA_LAT USA_LON USA_RECORD USA_STATUS USA_WIND USA_PRES USA_SSHS USA_R34_NE USA_R34_SE USA_R34_SW USA_R34_NW USA_R50_NE USA_R50_SE USA_R50_SW USA_R50_NW USA_R64_NE USA_R64_SE USA_R64_SW USA_R64_NW USA_POCI USA_ROCI USA_RMW USA_EYE TOKYO_LAT TOKYO_LON TOKYO_GRADE TOKYO_WIND TOKYO_PRES TOKYO_R50_DIR TOKYO_R50_LONG TOKYO_R50_SHORT TOKYO_R30_DIR TOKYO_R30_LONG TOKYO_R30_SHORT TOKYO_LAND CMA_LAT CMA_LON CMA_CAT CMA_WIND CMA_PRES HKO_LAT HKO_LON HKO_CAT HKO_WIND HKO_PRES NEWDELHI_LAT NEWDELHI_LON NEWDELHI_GRADE NEWDELHI_WIND NEWDELHI_PRES NEWDELHI_CI NEWDELHI_DP NEWDELHI_POCI REUNION_LAT REUNION_LON REUNION_TYPE REUNION_WIND REUNION_PRES REUNION_TNUM REUNION_CI REUNION_RMW REUNION_R34_NE REUNION_R34_SE REUNION_R34_SW REUNION_R34_NW REUNION_R50_NE REUNION_R50_SE REUNION_R50_SW REUNION_R50_NW REUNION_R64_NE REUNION_R64_SE REUNION_R64_SW REUNION_R64_NW BOM_LAT BOM_LON BOM_TYPE BOM_WIND BOM_PRES BOM_TNUM BOM_CI BOM_RMW BOM_R34_NE BOM_R34_SE BOM_R34_SW BOM_R34_NW BOM_R50_NE BOM_R50_SE BOM_R50_SW BOM_R50_NW BOM_R64_NE BOM_R64_SE BOM_R64_SW BOM_R64_NW BOM_ROCI BOM_POCI BOM_EYE BOM_POS_METHOD BOM_PRES_METHOD NADI_LAT NADI_LON NADI_CAT NADI_WIND NADI_PRES WELLINGTON_LAT WELLINGTON_LON WELLINGTON_WIND WELLINGTON_PRES DS824_LAT DS824_LON DS824_STAGE DS824_WIND DS824_PRES TD9636_LAT TD9636_LON TD9636_STAGE TD9636_WIND TD9636_PRES TD9635_LAT TD9635_LON TD9635_WIND TD9635_PRES TD9635_ROCI NEUMANN_LAT NEUMANN_LON NEUMANN_CLASS NEUMANN_WIND NEUMANN_PRES MLC_LAT MLC_LON MLC_CLASS MLC_WIND MLC_PRES USA_GUST BOM_GUST BOM_GUST_PER REUNION_GUST REUNION_GUST_PER USA_SEAHGT USA_SEARAD_NE USA_SEARAD_SE USA_SEARAD_SW USA_SEARAD_NW STORM_SPEED STORM_DIR
1936163N20089 1936 14 NI BB NOT_NAMED 1936-06-11 00:00:00 TS 19.5000 88.9000 main 234 230 _________O____ -1 19.5000 88.9000 TC 30 1 293
1936163N20089 1936 14 NI BB NOT_NAMED 1936-06-11 03:00:00 TS 19.5267 88.8317 main 230 223 _________PO___ -1 19.5400 88.7975 TC 30 19.5000 88.9000 1 2 301
1936163N20089 1936 14 NI BB NOT_NAMED 1936-06-11 06:00:00 TS 19.5837 88.7468 main 215 209 _________OP___ -1 19.6000 88.7000 TC 30 19.5593 88.8171 1 2 310
1936163N20089 1936 14 NI BB NOT_NAMED 1936-06-11 09:00:00 TS 19.6635 88.6589 main 209 200 _________PP___ -1 19.6925 88.6075 TC 30 19.6249 88.7274 1 2 314
1936163N20089 1936 14 NI BB NOT_NAMED 1936-06-11 12:00:00 TS 19.7515 88.5620 main 194 177 _________OP___ -1 19.8000 88.5000 TC 30 19.7031 88.6240 1 3 310
1936163N20089 1936 14 NI BB NOT_NAMED 1936-06-11 15:00:00 TS 19.8463 88.4287 main 177 156 _________PO___ -1 19.8925 88.3575 TC 30 19.8000 88.5000 1 3 308
1936163N20089 1936 14 NI BB NOT_NAMED 1936-06-11 18:00:00 TS 19.9594 88.2762 main 156 132 _________OP___ -1 20.0000 88.2000 TC 30 19.9188 88.3523 1 4 311
1936163N20089 1936 14 NI BB NOT_NAMED 1936-06-11 21:00:00 TS 20.1038 88.1176 main 132 118 _________PP___ -1 20.1575 88.0425 TC 30 20.0501 88.1927 1 4 314
1936163N20089 1936 14 NI BB NOT_NAMED 1936-06-12 00:00:00 TS 20.2407 87.9684 main 118 94 _________OP___ -1 20.3000 87.9000 TC 30 20.1813 88.0367 1 3 311
1936163N20089 1936 14 NI BB NOT_NAMED 1936-06-12 03:00:00 TS 20.3287 87.8425 main 94 89 _________PO___ -1 20.3575 87.7849 TC 30 20.3000 87.9000 1 3 308
1936163N20089 1936 14 NI BB NOT_NAMED 1936-06-12 06:00:00 TS 20.3946 87.7557 main 89 76 _________OP___ -1 20.4000 87.7000 TC 30 20.3893 87.8114 1 2 318
1936163N20089 1936 14 NI BB NOT_NAMED 1936-06-12 09:00:00 TS 20.4787 87.6961 main 76 63 _________PP___ -1 20.4925 87.6500 TC 30 20.4649 87.7423 1 2 327
1936163N20089 1936 14 NI BB NOT_NAMED 1936-06-12 12:00:00 TS 20.5665 87.6385 main 63 63 _________OP___ -1 20.6000 87.6000 TC 30 20.5330 87.6770 1 2 323
1936163N20089 1936 14 NI BB NOT_NAMED 1936-06-12 15:00:00 TS 20.6537 87.5575 main 62 52 _________PO___ -1 20.7075 87.5150 TC 31 20.6000 87.6000 1 2 316
1936163N20089 1936 14 NI BB NOT_NAMED 1936-06-12 18:00:00 TS 20.7395 87.4568 main 52 31 _________OP___ -1 20.8000 87.4000 TC 32 20.6789 87.5137 1 3 307
1936163N20089 1936 14 NI BB NOT_NAMED 1936-06-12 21:00:00 TS 20.8073 87.3412 main 31 20 _________PP___ -1 20.8575 87.2725 TC 33 20.7572 87.4099 1 3 297
1936163N20089 1936 14 NI BB NOT_NAMED 1936-06-13 00:00:00 TS 20.8660 87.1881 main 23 10 _________OP___ -1 20.9000 87.1000 TC 34 20.8320 87.2762 1 4 290
1936163N20089 1936 14 NI BB NOT_NAMED 1936-06-13 03:00:00 TS 20.9250 86.9862 main 10 0 _________PO___ -1 20.9500 86.8725 TC 33 20.9000 87.1000 2 4 285
1936163N20089 1936 14 NI BB NOT_NAMED 1936-06-13 06:00:00 TS 20.9827 86.7361 main 0 0 _________OP___ -1 21.0000 86.6000 TC 32 20.9654 86.8723 2 5 283
1936163N20089 1936 14 NI BB NOT_NAMED 1936-06-13 09:00:00 TS 21.0400 86.4551 main 0 0 _________PP___ -1 21.0575 86.3075 TC 31 21.0226 86.6026 2 6 281
1936163N20089 1936 14 NI BB NOT_NAMED 1936-06-13 12:00:00 TS 21.0842 86.1533 main 0 0 _________OP___ -1 21.1000 86.0000 TC 30 21.0685 86.3066 2 6 276
1936163N20089 1936 14 NI BB NOT_NAMED 1936-06-13 15:00:00 TS 21.1037 85.8500 main 0 0 _________PO___ -1 21.1074 85.7000 TC 30 21.1000 86.0000 1 6 272
1936163N20089 1936 14 NI BB NOT_NAMED 1936-06-13 18:00:00 TS 21.0990 85.5554 main 0 0 _________OP___ -1 21.1000 85.4000 TC 30 21.0980 85.7109 1 6 268
1936163N20089 1936 14 NI BB NOT_NAMED 1936-06-13 21:00:00 TS 21.0848 85.2609 main 0 0 _________PP___ -1 21.0849 85.1074 TC 30 21.0848 85.4144 1 6 269
1936163N20089 1936 14 NI BB NOT_NAMED 1936-06-14 00:00:00 TS 21.0896 84.9554 main 0 0 _________OP___ -1 21.1000 84.8000 TC 30 21.0792 85.1108 1 6 276
1936163N20089 1936 14 NI BB NOT_NAMED 1936-06-14 03:00:00 TS 21.1425 84.6250 main 0 0 _________PO___ -1 21.1850 84.4501 TC 30 21.1000 84.8000 1 6 283
1936163N20089 1936 14 NI BB NOT_NAMED 1936-06-14 06:00:00 TS 21.2356 84.2851 main 0 0 _________OP___ -1 21.3000 84.1000 TC 30 21.1713 84.4703 1 6 287
1936163N20089 1936 14 NI BB NOT_NAMED 1936-06-14 09:00:00 TS 21.3350 83.9601 main 0 0 _________PP___ -1 21.3999 83.7850 TC 30 21.2701 84.1353 1 6 289
1936163N20089 1936 14 NI BB NOT_NAMED 1936-06-14 12:00:00 TS 21.4419 83.6539 main 0 0 _________OP___ -1 21.5000 83.5000 TC 30 21.3838 83.8077 1 6 291
1936163N20089 1936 14 NI BB NOT_NAMED 1936-06-14 15:00:00 TS 21.5500 83.3712 main 0 0 _________PO___ -1 21.5999 83.2425 TC 30 21.5000 83.5000 1 5 293
1936163N20089 1936 14 NI BB NOT_NAMED 1936-06-14 18:00:00 TS 21.6518 83.1243 main 0 0 _________OP___ -1 21.7000 83.0000 TC 30 21.6035 83.2485 1 5 295
1936163N20089 1936 14 NI BB NOT_NAMED 1936-06-14 21:00:00 TS 21.7571 82.8898 main 0 0 _________PP___ -1 21.8074 82.7650 TC 30 21.7067 83.0147 1 5 294
1936163N20089 1936 14 NI BB NOT_NAMED 1936-06-15 00:00:00 TS 21.8533 82.6368 main 0 0 _________OP___ -1 21.9000 82.5000 TC 30 21.8066 82.7735 1 5 288
1936163N20089 1936 14 NI BB NOT_NAMED 1936-06-15 03:00:00 TS 21.9250 82.3362 main 0 0 _________PO___ -1 21.9500 82.1724 TC 30 21.9000 82.5000 1 6 283
1936163N20089 1936 14 NI BB NOT_NAMED 1936-06-15 06:00:00 TS 21.9933 81.9703 main 0 0 _________OP___ -1 22.0000 81.8000 TC 30 21.9866 82.1407 1 7 282
1936163N20089 1936 14 NI BB NOT_NAMED 1936-06-15 09:00:00 TS 22.0828 81.5676 main 0 0 _________PP___ -1 22.1001 81.3851 TC 30 22.0656 81.7501 1 8 283
1936163N20089 1936 14 NI BB NOT_NAMED 1936-06-15 12:00:00 TS 22.1683 81.1797 main 0 0 _________OP___ -1 22.2000 81.0000 TC 30 22.1366 81.3594 1 7 283
1936163N20089 1936 14 NI BB NOT_NAMED 1936-06-15 15:00:00 TS 22.2287 80.8637 main 0 0 _________PO___ -1 22.2573 80.7274 TC 30 22.2000 81.0000 1 5 281
1936163N20089 1936 14 NI BB NOT_NAMED 1936-06-15 18:00:00 TS 22.2750 80.6116 main 0 0 _________OP___ -1 22.3000 80.5000 TC 30 22.2563 80.6953 1 5 282
1936163N20089 1936 14 NI BB NOT_NAMED 1936-06-15 21:00:00 TS 22.3234 80.3655 main 0 0 _________PP___ -1 22.3476 80.2576 TC 30 22.3072 80.4375 1 4 282
1936163N20089 1936 14 NI BB NOT_NAMED 1936-06-16 00:00:00 TS 22.3697 80.1406 main 0 0 _________OP___ -1 22.4000 80.0000 TC 30 22.3545 80.2110 1 3 283
1936163N20089 1936 14 NI BB NOT_NAMED 1936-06-16 03:00:00 NR 22.4000 80.0000 main 0 __________O___ -1 TC 22.4000 80.0000 1 3 283

IBTrACS Databaseについて

本データベースは、米国NOAAが公開する1842年以降の世界の熱帯低気圧のベストトラックデータアーカイブInternational Best Track Archive for Climate Stewardship (IBTrACS)を、ウェブで閲覧しやすい形式に変換したものです。

最終更新日:2021-12-06